createdAt,value
2023-03-03T00:00:47.619Z,0.98
2023-03-03T00:03:18.143Z,0.97
2023-03-03T00:05:44.732Z,0.89
2023-03-03T00:08:11.389Z,0.90
2023-03-03T00:10:38.679Z,0.78
2023-03-03T00:13:14.941Z,0.72
2023-03-03T00:15:41.539Z,0.63
2023-03-03T00:18:35.627Z,0.64
2023-03-03T00:21:04.116Z,0.57
2023-03-03T00:23:36.152Z,0.53
2023-03-03T00:26:06.249Z,0.53
2023-03-03T00:28:44.526Z,0.64
2023-03-03T00:31:40.502Z,0.85
2023-03-03T00:34:20.127Z,0.98
2023-03-03T00:36:49.593Z,0.99
2023-03-03T00:39:21.987Z,0.88
2023-03-03T00:41:48.972Z,0.75
2023-03-03T00:44:37.410Z,0.67
2023-03-03T00:47:22.694Z,0.64
2023-03-03T00:49:49.289Z,0.56
2023-03-03T00:52:20.200Z,0.52
2023-03-03T00:54:46.997Z,0.45
2023-03-03T00:57:13.679Z,0.43
2023-03-03T00:59:40.388Z,0.34
2023-03-03T01:02:07.008Z,0.24
2023-03-03T01:04:33.589Z,0.20
2023-03-03T01:07:00.154Z,0.18
2023-03-03T01:09:26.784Z,0.19
2023-03-03T01:11:53.501Z,0.20
2023-03-03T01:14:20.125Z,0.25
2023-03-03T01:16:46.789Z,0.28
2023-03-03T01:19:13.428Z,0.32
2023-03-03T01:21:40.115Z,0.34
2023-03-03T01:24:06.719Z,0.31
2023-03-03T01:26:33.301Z,0.29
2023-03-03T01:28:59.878Z,0.27
2023-03-03T01:31:27.050Z,0.29
2023-03-03T01:33:53.657Z,0.32
2023-03-03T01:36:26.989Z,0.38
2023-03-03T01:38:53.816Z,0.44
2023-03-03T01:41:21.099Z,0.45
2023-03-03T01:43:50.061Z,0.51
2023-03-03T01:46:55.667Z,0.59
2023-03-03T01:49:31.365Z,0.66
2023-03-03T01:52:01.384Z,0.69
2023-03-03T01:54:41.970Z,0.72
2023-03-03T01:57:15.454Z,0.75
2023-03-03T01:59:49.341Z,0.81
2023-03-03T02:02:16.488Z,0.89
2023-03-03T02:04:43.024Z,0.94
2023-03-03T02:07:11.646Z,0.98
2023-03-03T02:09:43.899Z,0.99
2023-03-03T02:12:14.019Z,1.04
2023-03-03T02:14:40.635Z,1.07
2023-03-03T02:17:07.428Z,1.11
2023-03-03T02:20:02.052Z,1.12
2023-03-03T02:22:44.263Z,1.17
2023-03-03T02:25:18.546Z,1.22
2023-03-03T02:27:45.232Z,1.24
2023-03-03T02:30:16.345Z,1.25
2023-03-03T02:32:42.989Z,1.25
2023-03-03T02:35:31.860Z,1.29
2023-03-03T02:38:07.192Z,1.31
2023-03-03T02:40:37.825Z,1.37
2023-03-03T02:43:06.796Z,1.41
2023-03-03T02:45:33.518Z,1.49
2023-03-03T02:48:00.127Z,1.53
2023-03-03T02:50:27.410Z,1.57
2023-03-03T02:52:54.026Z,1.59
2023-03-03T02:55:20.588Z,1.61
2023-03-03T02:57:47.127Z,1.63
2023-03-03T03:00:14.031Z,1.66
2023-03-03T03:02:40.647Z,1.69
2023-03-03T03:05:09.005Z,1.72
2023-03-03T03:07:35.749Z,1.76
2023-03-03T03:10:02.314Z,1.78
2023-03-03T03:12:28.860Z,1.81
2023-03-03T03:14:55.410Z,1.84
2023-03-03T03:17:22.202Z,1.88
2023-03-03T03:19:48.744Z,1.91
2023-03-03T03:22:15.331Z,1.94
2023-03-03T03:24:41.919Z,1.97
2023-03-03T03:27:08.838Z,2.01
2023-03-03T03:29:35.684Z,2.01
2023-03-03T03:32:02.261Z,1.97
2023-03-03T03:34:28.963Z,1.97
2023-03-03T03:36:55.547Z,1.99
2023-03-03T03:39:22.077Z,2.00
2023-03-03T03:41:48.761Z,2.03
2023-03-03T03:44:15.300Z,2.05
2023-03-03T03:46:41.911Z,2.06
2023-03-03T03:49:08.454Z,2.10
2023-03-03T03:51:38.170Z,2.08
2023-03-03T03:54:04.778Z,2.06
2023-03-03T03:56:31.343Z,2.09
2023-03-03T03:58:58.056Z,2.13
2023-03-03T04:01:25.435Z,2.18
2023-03-03T04:03:52.892Z,2.22
2023-03-03T04:06:19.469Z,2.28
2023-03-03T04:08:46.035Z,2.32
2023-03-03T04:11:12.617Z,2.39
2023-03-03T04:13:39.304Z,2.42
2023-03-03T04:16:06.089Z,2.47
2023-03-03T04:18:32.760Z,2.48
2023-03-03T04:20:59.381Z,2.51
2023-03-03T04:23:25.969Z,2.54
2023-03-03T04:25:52.574Z,2.55
2023-03-03T04:28:19.194Z,2.55
2023-03-03T04:30:46.145Z,2.55
2023-03-03T04:33:12.792Z,2.56
2023-03-03T04:35:39.414Z,2.55
2023-03-03T04:38:06.019Z,2.58
2023-03-03T04:40:32.601Z,2.59
2023-03-03T04:42:59.208Z,2.63
2023-03-03T04:45:25.915Z,2.61
2023-03-03T04:47:52.551Z,2.58
2023-03-03T04:50:20.011Z,2.59
2023-03-03T04:52:46.568Z,2.63
2023-03-03T04:55:14.154Z,2.68
2023-03-03T04:57:40.745Z,2.71
2023-03-03T05:00:07.896Z,2.76
2023-03-03T05:02:34.429Z,2.80
2023-03-03T05:05:01.113Z,2.85
2023-03-03T05:07:27.821Z,2.87
2023-03-03T05:09:54.352Z,2.88
2023-03-03T05:12:21.284Z,2.88
2023-03-03T05:14:47.844Z,2.92
2023-03-03T05:17:14.513Z,2.94
2023-03-03T05:19:41.228Z,2.94
2023-03-03T05:22:07.805Z,2.95
2023-03-03T05:24:34.367Z,2.97
2023-03-03T05:27:01.052Z,3.00
2023-03-03T05:29:28.643Z,3.02
2023-03-03T05:31:55.280Z,3.03
2023-03-03T05:34:21.919Z,3.04
2023-03-03T05:36:48.450Z,3.08
2023-03-03T05:39:15.074Z,3.11
2023-03-03T05:41:43.014Z,3.15
2023-03-03T05:44:10.238Z,3.18
2023-03-03T05:46:36.794Z,3.21
2023-03-03T05:49:03.412Z,3.25
2023-03-03T05:51:29.989Z,3.27
2023-03-03T05:53:56.696Z,3.29
2023-03-03T05:56:23.265Z,3.32
2023-03-03T05:58:50.127Z,3.34
2023-03-03T06:01:16.969Z,3.34
2023-03-03T06:03:43.517Z,3.34
2023-03-03T06:06:10.250Z,3.35
2023-03-03T06:08:36.821Z,3.39
2023-03-03T06:11:03.507Z,3.41
2023-03-03T06:13:30.410Z,3.43
2023-03-03T06:15:56.969Z,3.45
2023-03-03T06:18:23.526Z,3.40
2023-03-03T06:20:54.019Z,3.45
2023-03-03T06:23:21.583Z,3.52
2023-03-03T06:25:48.217Z,3.57
2023-03-03T06:28:15.336Z,3.60
2023-03-03T06:30:41.930Z,3.66
2023-03-03T06:33:08.521Z,3.72
2023-03-03T06:35:35.234Z,3.77
2023-03-03T06:38:02.053Z,3.82
2023-03-03T06:40:28.615Z,3.87
2023-03-03T06:42:55.499Z,3.94
2023-03-03T06:45:22.132Z,4.00
2023-03-03T06:47:48.667Z,4.05
2023-03-03T06:50:20.174Z,4.11
2023-03-03T06:52:46.934Z,4.17
2023-03-03T06:55:23.731Z,4.27
2023-03-03T06:57:50.305Z,4.39
2023-03-03T07:00:20.331Z,4.50
2023-03-03T07:03:12.873Z,4.60
2023-03-03T07:05:39.465Z,4.68
2023-03-03T07:08:32.533Z,4.73
2023-03-03T07:11:09.200Z,4.79
2023-03-03T07:13:52.021Z,4.87
2023-03-03T07:16:22.909Z,4.92
2023-03-03T07:19:05.310Z,4.98
2023-03-03T07:21:36.384Z,5.06
2023-03-03T07:24:34.224Z,5.13
2023-03-03T07:27:11.730Z,5.18
2023-03-03T07:29:42.314Z,5.24
2023-03-03T07:32:24.908Z,5.31
2023-03-03T07:34:53.167Z,5.37
2023-03-03T07:37:29.836Z,5.44
2023-03-03T07:39:56.646Z,5.51
2023-03-03T07:42:29.054Z,5.58
2023-03-03T07:44:58.825Z,5.64
2023-03-03T07:47:27.803Z,5.72
2023-03-03T07:50:00.770Z,5.80
2023-03-03T07:52:48.929Z,5.88
2023-03-03T07:55:36.031Z,5.97
2023-03-03T07:58:15.592Z,6.03
2023-03-03T08:00:45.183Z,6.04
2023-03-03T08:03:21.103Z,6.03
2023-03-03T08:05:49.770Z,6.04
2023-03-03T08:08:44.941Z,6.11
2023-03-03T08:11:11.493Z,6.13
2023-03-03T08:13:39.298Z,6.16
2023-03-03T08:16:11.768Z,6.24
2023-03-03T08:18:42.433Z,6.30
2023-03-03T08:21:11.977Z,6.38
2023-03-03T08:23:38.773Z,6.50
2023-03-03T08:26:06.090Z,6.60
2023-03-03T08:28:32.657Z,6.65
2023-03-03T08:31:14.224Z,6.69
2023-03-03T08:33:41.770Z,6.79
2023-03-03T08:36:08.722Z,6.88
2023-03-03T08:38:35.733Z,6.96
2023-03-03T08:41:02.482Z,7.07
2023-03-03T08:43:29.069Z,7.19
2023-03-03T08:46:00.538Z,7.33
2023-03-03T08:48:29.024Z,7.46
2023-03-03T08:50:55.701Z,7.56
2023-03-03T08:53:23.321Z,7.63
2023-03-03T08:55:50.858Z,7.72
2023-03-03T08:58:20.370Z,7.77
2023-03-03T09:00:50.214Z,7.80
2023-03-03T09:03:17.759Z,7.91
2023-03-03T09:05:45.191Z,7.92
2023-03-03T09:08:12.003Z,7.93
2023-03-03T09:10:39.207Z,7.95
2023-03-03T09:13:18.993Z,7.93
2023-03-03T09:15:45.675Z,7.98
2023-03-03T09:18:18.823Z,8.00
2023-03-03T09:20:53.743Z,8.03
2023-03-03T09:23:37.140Z,8.04
2023-03-03T09:26:30.621Z,8.07
2023-03-03T09:29:15.380Z,8.10
2023-03-03T09:31:48.453Z,8.19
2023-03-03T09:34:39.184Z,8.31
2023-03-03T09:37:28.676Z,8.40
2023-03-03T09:39:57.630Z,8.44
2023-03-03T09:43:00.675Z,8.55
2023-03-03T09:45:37.422Z,8.68
2023-03-03T09:48:30.568Z,8.86
2023-03-03T09:51:12.141Z,9.02
2023-03-03T09:54:03.576Z,9.25
2023-03-03T09:56:37.493Z,9.53
2023-03-03T09:59:04.020Z,9.63
2023-03-03T10:01:53.201Z,9.87
2023-03-03T10:04:51.120Z,10.21
2023-03-03T10:07:37.212Z,10.50
2023-03-03T10:10:06.981Z,10.85
2023-03-03T10:12:46.604Z,11.17
2023-03-03T10:15:41.269Z,11.41
2023-03-03T10:18:38.968Z,11.64
2023-03-03T10:21:08.600Z,11.53
2023-03-03T10:23:46.408Z,11.47
2023-03-03T10:26:44.320Z,11.48
2023-03-03T10:29:22.101Z,11.54
2023-03-03T10:32:01.001Z,11.84
2023-03-03T10:34:40.052Z,12.25
2023-03-03T10:37:36.629Z,12.70
2023-03-03T10:40:10.931Z,13.33
2023-03-03T10:42:49.780Z,13.59
2023-03-03T10:45:45.975Z,13.88
2023-03-03T10:48:26.766Z,13.95
2023-03-03T10:50:59.104Z,14.12
2023-03-03T10:53:40.660Z,14.28
2023-03-03T10:56:51.690Z,14.57
2023-03-03T10:59:40.227Z,14.71
2023-03-03T11:02:56.577Z,15.19
2023-03-03T11:05:29.365Z,15.59
2023-03-03T11:08:06.376Z,16.15
2023-03-03T11:10:40.984Z,16.66
2023-03-03T11:13:25.466Z,17.28
2023-03-03T11:16:10.399Z,18.25
2023-03-03T11:18:42.951Z,19.27
2023-03-03T11:21:28.056Z,19.81
2023-03-03T11:24:27.318Z,19.28
2023-03-03T11:27:32.872Z,18.44
2023-03-03T11:30:05.270Z,18.59
2023-03-03T11:32:52.855Z,19.37
2023-03-03T11:35:29.298Z,20.34
2023-03-03T11:38:19.631Z,20.69
2023-03-03T11:40:54.036Z,20.66
2023-03-03T11:43:37.186Z,21.03
2023-03-03T11:46:16.845Z,20.95
2023-03-03T11:49:00.300Z,20.07
2023-03-03T11:51:39.225Z,19.60
2023-03-03T11:54:22.487Z,19.90
2023-03-03T11:56:50.003Z,20.41
2023-03-03T11:59:42.111Z,19.45
2023-03-03T12:02:17.579Z,18.76
2023-03-03T12:04:55.985Z,18.37
2023-03-03T12:07:52.596Z,17.94
2023-03-03T12:10:54.341Z,17.91
2023-03-03T12:13:29.513Z,19.05
2023-03-03T12:16:11.144Z,19.35
2023-03-03T12:18:51.728Z,20.26
2023-03-03T12:21:41.413Z,20.33
2023-03-03T12:24:19.971Z,20.60
2023-03-03T12:27:14.502Z,20.85
2023-03-03T12:30:21.617Z,21.03
2023-03-03T12:32:48.102Z,20.77
2023-03-03T12:35:35.017Z,20.79
2023-03-03T12:38:04.557Z,20.69
2023-03-03T12:40:34.489Z,20.55
2023-03-03T12:43:33.446Z,20.55
2023-03-03T12:46:37.706Z,20.72
2023-03-03T12:49:05.108Z,21.77
2023-03-03T12:51:37.319Z,22.33
2023-03-03T12:54:25.777Z,22.32
2023-03-03T12:56:58.485Z,22.82
2023-03-03T13:00:01.141Z,21.49
2023-03-03T13:03:03.112Z,20.90
2023-03-03T13:05:48.686Z,19.79
2023-03-03T13:08:29.357Z,18.56
2023-03-03T13:11:09.193Z,18.62
2023-03-03T13:13:45.563Z,18.83
2023-03-03T13:16:26.370Z,18.74
2023-03-03T13:19:06.780Z,18.94
2023-03-03T13:21:45.652Z,18.78
2023-03-03T13:24:51.080Z,18.95
2023-03-03T13:27:21.126Z,19.83
2023-03-03T13:29:47.626Z,20.45
2023-03-03T13:32:23.469Z,20.91
2023-03-03T13:35:09.570Z,21.78
2023-03-03T13:37:43.506Z,21.81
2023-03-03T13:40:13.382Z,21.45
2023-03-03T13:42:47.503Z,21.45
2023-03-03T13:45:41.376Z,21.18
2023-03-03T13:48:07.915Z,20.46
2023-03-03T13:50:49.814Z,20.04
2023-03-03T13:53:28.348Z,19.57
2023-03-03T13:56:19.624Z,19.23
2023-03-03T13:59:34.796Z,18.20
2023-03-03T14:02:29.789Z,18.34
2023-03-03T14:05:03.318Z,18.41
2023-03-03T14:07:56.214Z,18.68
2023-03-03T14:10:29.000Z,18.51
2023-03-03T14:13:25.069Z,17.96
2023-03-03T14:16:01.788Z,18.02
2023-03-03T14:18:53.617Z,17.54
2023-03-03T14:21:40.737Z,17.35
2023-03-03T14:24:17.296Z,17.45
2023-03-03T14:27:14.167Z,17.27
2023-03-03T14:29:40.907Z,16.69
2023-03-03T14:32:39.623Z,16.50
2023-03-03T14:35:20.448Z,16.17
2023-03-03T14:37:47.524Z,15.86
2023-03-03T14:40:21.786Z,15.77
2023-03-03T14:42:59.092Z,15.75
2023-03-03T14:45:32.030Z,16.03
2023-03-03T14:48:01.148Z,16.22
2023-03-03T14:50:32.931Z,16.22
2023-03-03T14:53:12.926Z,16.17
2023-03-03T14:55:42.519Z,15.91
2023-03-03T14:58:27.652Z,15.99
2023-03-03T15:01:21.071Z,15.84
2023-03-03T15:04:02.491Z,16.01
2023-03-03T15:06:36.817Z,15.82
2023-03-03T15:09:43.201Z,15.85
2023-03-03T15:12:37.318Z,15.95
2023-03-03T15:15:08.923Z,16.10
2023-03-03T15:17:38.086Z,15.83
2023-03-03T15:20:10.450Z,15.71
2023-03-03T15:22:36.936Z,15.54
2023-03-03T15:25:20.924Z,15.17
2023-03-03T15:28:08.226Z,14.93
2023-03-03T15:31:18.068Z,14.62
2023-03-03T15:34:01.711Z,14.38
2023-03-03T15:36:37.317Z,14.23
2023-03-03T15:39:22.544Z,14.12
2023-03-03T15:42:03.144Z,14.10
2023-03-03T15:44:32.843Z,14.31
2023-03-03T15:47:07.338Z,14.36
2023-03-03T15:49:33.747Z,14.36
2023-03-03T15:52:22.790Z,14.46
2023-03-03T15:55:10.383Z,14.40
2023-03-03T15:57:45.938Z,14.27
2023-03-03T16:00:46.568Z,14.18
2023-03-03T16:03:36.888Z,14.04
2023-03-03T16:06:19.145Z,13.92
2023-03-03T16:09:00.621Z,13.81
2023-03-03T16:11:39.377Z,13.76
2023-03-03T16:14:33.793Z,13.54
2023-03-03T16:17:37.531Z,13.20
2023-03-03T16:20:22.671Z,12.97
2023-03-03T16:22:54.844Z,12.71
2023-03-03T16:25:24.721Z,12.46
2023-03-03T16:28:45.068Z,12.13
2023-03-03T16:31:38.084Z,11.86
2023-03-03T16:34:33.628Z,11.73
2023-03-03T16:37:32.398Z,11.57
2023-03-03T16:40:11.426Z,11.40
2023-03-03T16:42:38.088Z,11.23
2023-03-03T16:45:21.465Z,11.05
2023-03-03T16:47:48.060Z,10.88
2023-03-03T16:50:38.708Z,10.78
2023-03-03T16:53:30.824Z,10.39
2023-03-03T16:56:18.557Z,10.18
2023-03-03T16:58:54.361Z,10.05
2023-03-03T17:01:26.867Z,9.94
2023-03-03T17:04:01.066Z,9.93
2023-03-03T17:06:33.548Z,9.77
2023-03-03T17:09:33.226Z,9.68
2023-03-03T17:12:16.171Z,9.28
2023-03-03T17:15:19.725Z,9.08
2023-03-03T17:18:05.133Z,9.00
2023-03-03T17:20:45.038Z,9.06
2023-03-03T17:23:40.543Z,8.97
2023-03-03T17:26:13.073Z,8.91
2023-03-03T17:29:17.545Z,8.81
2023-03-03T17:32:08.283Z,8.66
2023-03-03T17:34:40.596Z,8.62
2023-03-03T17:37:42.340Z,8.48
2023-03-03T17:40:43.976Z,8.25
2023-03-03T17:43:20.701Z,8.23
2023-03-03T17:45:50.527Z,8.16
2023-03-03T17:48:47.986Z,8.05
2023-03-03T17:51:41.975Z,7.82
2023-03-03T17:54:19.109Z,7.62
2023-03-03T17:57:10.373Z,7.48
2023-03-03T18:00:10.788Z,7.09
2023-03-03T18:02:43.377Z,6.74
2023-03-03T18:05:39.395Z,6.50
2023-03-03T18:08:36.640Z,6.40
2023-03-03T18:11:03.153Z,6.30
2023-03-03T18:14:07.378Z,6.16
2023-03-03T18:16:55.716Z,5.99
2023-03-03T18:19:49.280Z,5.97
2023-03-03T18:22:25.639Z,5.97
2023-03-03T18:24:52.176Z,5.95
2023-03-03T18:27:24.933Z,5.89
2023-03-03T18:30:20.558Z,5.77
2023-03-03T18:32:56.433Z,5.74
2023-03-03T18:35:43.955Z,5.61
2023-03-03T18:38:16.703Z,5.56
2023-03-03T18:40:53.606Z,5.40
2023-03-03T18:43:41.768Z,5.34
2023-03-03T18:46:20.500Z,5.29
2023-03-03T18:49:04.229Z,5.33
2023-03-03T18:51:40.120Z,5.34
2023-03-03T18:54:12.896Z,5.34
2023-03-03T18:57:03.734Z,5.24
2023-03-03T18:59:30.236Z,5.12
2023-03-03T19:02:18.189Z,5.05
2023-03-03T19:04:55.699Z,5.04
2023-03-03T19:07:51.800Z,5.01
2023-03-03T19:10:21.512Z,4.96
2023-03-03T19:12:55.482Z,4.93
2023-03-03T19:15:35.774Z,4.93
2023-03-03T19:18:14.919Z,4.85
2023-03-03T19:20:45.765Z,4.74
2023-03-03T19:23:15.917Z,4.62
2023-03-03T19:25:42.944Z,4.58
2023-03-03T19:28:15.397Z,4.52
2023-03-03T19:31:03.429Z,4.45
2023-03-03T19:33:42.967Z,4.43
2023-03-03T19:36:15.634Z,4.35
2023-03-03T19:39:15.710Z,4.30
2023-03-03T19:42:13.625Z,4.37
2023-03-03T19:44:57.020Z,4.36
2023-03-03T19:47:38.830Z,4.36
2023-03-03T19:50:33.083Z,4.34
2023-03-03T19:53:14.796Z,4.37
2023-03-03T19:56:10.184Z,4.36
2023-03-03T19:58:56.002Z,4.31
2023-03-03T20:01:40.633Z,4.24
2023-03-03T20:04:16.379Z,4.29
2023-03-03T20:07:03.347Z,4.30
2023-03-03T20:09:53.767Z,4.28
2023-03-03T20:12:32.028Z,4.26
2023-03-03T20:15:15.161Z,4.28
2023-03-03T20:17:54.766Z,4.34
2023-03-03T20:20:50.976Z,4.35
2023-03-03T20:23:47.121Z,4.36
2023-03-03T20:26:33.915Z,4.42
2023-03-03T20:29:07.215Z,4.47
2023-03-03T20:31:52.155Z,4.48
2023-03-03T20:34:30.667Z,4.48
2023-03-03T20:37:23.143Z,4.47
2023-03-03T20:40:11.315Z,4.38
2023-03-03T20:43:04.999Z,4.36
2023-03-03T20:46:09.794Z,4.30
2023-03-03T20:48:50.537Z,4.27
2023-03-03T20:51:35.232Z,4.25
2023-03-03T20:54:14.920Z,4.18
2023-03-03T20:56:56.576Z,4.14
2023-03-03T20:59:36.310Z,4.08
2023-03-03T21:02:08.982Z,4.02
2023-03-03T21:04:36.293Z,3.99
2023-03-03T21:07:04.607Z,3.97
2023-03-03T21:09:33.950Z,3.92
2023-03-03T21:12:30.757Z,3.85
2023-03-03T21:15:07.228Z,3.78
2023-03-03T21:17:33.959Z,3.75
2023-03-03T21:20:25.739Z,3.65
2023-03-03T21:22:53.237Z,3.62
2023-03-03T21:25:41.494Z,3.58
2023-03-03T21:28:20.817Z,3.55
2023-03-03T21:31:11.986Z,3.52
2023-03-03T21:33:51.867Z,3.50
2023-03-03T21:36:23.476Z,3.46
2023-03-03T21:38:52.222Z,3.43
2023-03-03T21:41:19.548Z,3.38
2023-03-03T21:43:49.430Z,3.35
2023-03-03T21:46:24.342Z,3.29
2023-03-03T21:48:52.126Z,3.30
2023-03-03T21:51:20.441Z,3.25
2023-03-03T21:53:47.818Z,3.20
2023-03-03T21:56:14.563Z,3.16
2023-03-03T21:58:42.249Z,3.12
2023-03-03T22:01:09.632Z,3.10
2023-03-03T22:03:36.551Z,3.05
2023-03-03T22:06:03.256Z,3.00
2023-03-03T22:08:29.889Z,2.94
2023-03-03T22:10:56.570Z,2.93
2023-03-03T22:13:24.925Z,2.92
2023-03-03T22:15:52.950Z,2.87
2023-03-03T22:18:20.711Z,2.84
2023-03-03T22:20:48.157Z,2.81
2023-03-03T22:23:15.198Z,2.78
2023-03-03T22:25:42.034Z,2.78
2023-03-03T22:28:08.894Z,2.75
2023-03-03T22:30:36.752Z,2.73
2023-03-03T22:33:03.644Z,2.75
2023-03-03T22:35:30.537Z,2.76
2023-03-03T22:37:57.204Z,2.91
2023-03-03T22:40:24.117Z,2.91
2023-03-03T22:42:50.821Z,2.87
2023-03-03T22:45:17.489Z,2.83
2023-03-03T22:47:44.139Z,2.81
2023-03-03T22:50:11.444Z,2.74
2023-03-03T22:52:38.150Z,2.69
2023-03-03T22:55:05.415Z,2.63
2023-03-03T22:57:32.165Z,2.57
2023-03-03T23:00:00.036Z,2.57
2023-03-03T23:02:26.689Z,2.63
2023-03-03T23:04:58.477Z,2.59
2023-03-03T23:07:26.448Z,2.49
2023-03-03T23:09:53.057Z,2.37
2023-03-03T23:12:20.035Z,2.27
2023-03-03T23:14:46.613Z,2.18
2023-03-03T23:17:13.256Z,2.10
2023-03-03T23:19:39.802Z,2.01
2023-03-03T23:22:06.433Z,1.99
2023-03-03T23:24:33.285Z,1.95
2023-03-03T23:27:00.775Z,1.90
2023-03-03T23:29:27.437Z,1.86
2023-03-03T23:31:54.118Z,1.84
2023-03-03T23:34:21.027Z,1.84
2023-03-03T23:36:47.701Z,1.83
2023-03-03T23:39:14.354Z,1.81
2023-03-03T23:41:41.229Z,1.77
2023-03-03T23:44:07.808Z,1.73
2023-03-03T23:46:34.451Z,1.66
2023-03-03T23:49:02.121Z,1.61
2023-03-03T23:51:28.835Z,1.56
2023-03-03T23:53:56.352Z,1.56
2023-03-03T23:56:23.588Z,1.53
2023-03-03T23:58:50.170Z,1.48
